createdAt,value
2023-05-16T00:01:14.247Z,15.80
2023-05-16T00:03:42.572Z,14.63
2023-05-16T00:06:11.187Z,13.37
2023-05-16T00:08:38.948Z,13.50
2023-05-16T00:11:06.846Z,15.03
2023-05-16T00:13:34.575Z,14.90
2023-05-16T00:16:02.744Z,14.43
2023-05-16T00:18:30.341Z,14.07
2023-05-16T00:20:58.306Z,13.23
2023-05-16T00:23:25.969Z,13.47
2023-05-16T00:25:54.059Z,13.03
2023-05-16T00:28:21.615Z,12.97
2023-05-16T00:30:49.455Z,12.80
2023-05-16T00:33:17.261Z,13.07
2023-05-16T00:35:45.075Z,14.00
2023-05-16T00:38:12.761Z,11.73
2023-05-16T00:40:41.046Z,11.93
2023-05-16T00:43:10.782Z,12.93
2023-05-16T00:45:38.690Z,12.70
2023-05-16T00:48:06.569Z,12.00
2023-05-16T00:50:35.051Z,11.80
2023-05-16T00:53:02.589Z,11.63
2023-05-16T00:55:30.578Z,12.23
2023-05-16T00:57:59.823Z,11.80
2023-05-16T01:00:28.072Z,11.50
2023-05-16T01:02:56.657Z,12.23
2023-05-16T01:05:24.683Z,12.13
2023-05-16T01:07:52.422Z,11.97
2023-05-16T01:10:20.307Z,11.93
2023-05-16T01:13:02.532Z,13.13
2023-05-16T01:15:33.913Z,13.07
2023-05-16T01:18:09.198Z,12.20
2023-05-16T01:20:57.993Z,13.10
2023-05-16T01:23:35.090Z,12.40
2023-05-16T01:26:22.690Z,12.57
2023-05-16T01:28:51.365Z,13.80
2023-05-16T01:31:20.264Z,13.40
2023-05-16T01:33:47.906Z,13.07
2023-05-16T01:36:40.810Z,13.80
2023-05-16T01:39:12.437Z,13.73
2023-05-16T01:41:52.572Z,13.60
2023-05-16T01:44:49.186Z,13.67
2023-05-16T01:47:18.513Z,13.27
2023-05-16T01:49:49.259Z,13.37
2023-05-16T01:52:20.746Z,13.43
2023-05-16T01:54:49.816Z,14.10
2023-05-16T01:57:18.331Z,14.47
2023-05-16T01:59:46.611Z,15.07
2023-05-16T02:02:14.353Z,14.27
2023-05-16T02:04:42.247Z,13.57
2023-05-16T02:07:10.051Z,14.43
2023-05-16T02:09:38.477Z,14.43
2023-05-16T02:12:08.472Z,14.27
2023-05-16T02:14:36.360Z,13.60
2023-05-16T02:17:04.509Z,12.90
2023-05-16T02:19:32.272Z,14.37
2023-05-16T02:22:01.849Z,12.53
2023-05-16T02:24:29.403Z,12.63
2023-05-16T02:26:57.190Z,12.80
2023-05-16T02:29:24.963Z,12.30
2023-05-16T02:31:53.243Z,12.83
2023-05-16T02:34:20.756Z,11.77
2023-05-16T02:36:48.621Z,11.83
2023-05-16T02:39:16.259Z,10.80
2023-05-16T02:41:44.148Z,9.93
2023-05-16T02:44:11.962Z,8.40
2023-05-16T02:46:39.951Z,9.00
2023-05-16T02:49:07.760Z,8.47
2023-05-16T02:51:35.656Z,8.20
2023-05-16T02:54:03.282Z,8.27
2023-05-16T02:56:31.188Z,7.00
2023-05-16T02:58:58.746Z,7.00
2023-05-16T03:01:26.729Z,5.73
2023-05-16T03:03:54.425Z,6.63
2023-05-16T03:06:22.502Z,6.33
2023-05-16T03:08:50.234Z,7.33
2023-05-16T03:11:22.466Z,5.40
2023-05-16T03:13:50.036Z,5.17
2023-05-16T03:16:17.981Z,5.80
2023-05-16T03:18:45.728Z,5.60
2023-05-16T03:21:13.541Z,5.60
2023-05-16T03:23:41.157Z,5.33
2023-05-16T03:26:09.156Z,4.73
2023-05-16T03:28:37.636Z,5.20
2023-05-16T03:31:05.652Z,4.80
2023-05-16T03:33:33.254Z,4.80
2023-05-16T03:36:01.190Z,5.57
2023-05-16T03:38:29.048Z,4.30
2023-05-16T03:40:57.136Z,4.33
2023-05-16T03:43:24.889Z,4.70
2023-05-16T03:45:52.764Z,4.17
2023-05-16T03:48:20.445Z,3.83
2023-05-16T03:50:48.295Z,4.23
2023-05-16T03:53:15.894Z,5.03
2023-05-16T03:55:44.037Z,4.57
2023-05-16T03:58:12.335Z,3.90
2023-05-16T04:00:40.350Z,3.50
2023-05-16T04:03:08.604Z,3.80
2023-05-16T04:05:36.645Z,3.97
2023-05-16T04:08:04.389Z,3.87
2023-05-16T04:10:32.428Z,3.83
2023-05-16T04:13:00.050Z,3.30
2023-05-16T04:15:28.375Z,2.93
2023-05-16T04:17:56.928Z,3.60
2023-05-16T04:20:24.850Z,3.20
2023-05-16T04:22:52.542Z,3.63
2023-05-16T04:25:20.528Z,3.10
2023-05-16T04:27:48.016Z,3.33
2023-05-16T04:30:16.064Z,2.90
2023-05-16T04:32:43.844Z,2.67
2023-05-16T04:35:12.252Z,2.73
2023-05-16T04:37:40.099Z,2.73
2023-05-16T04:40:09.934Z,2.50
2023-05-16T04:42:37.976Z,3.40
2023-05-16T04:45:06.868Z,2.70
2023-05-16T04:47:34.799Z,3.13
2023-05-16T04:50:02.900Z,2.53
2023-05-16T04:52:30.595Z,3.53
2023-05-16T04:55:00.597Z,3.50
2023-05-16T04:57:28.355Z,2.87
2023-05-16T04:59:56.256Z,2.70
2023-05-16T05:02:23.921Z,2.80
2023-05-16T05:04:52.370Z,2.70
2023-05-16T05:07:19.967Z,2.70
2023-05-16T05:09:47.876Z,2.63
2023-05-16T05:12:15.577Z,2.43
2023-05-16T05:14:44.060Z,2.80
2023-05-16T05:17:11.838Z,3.10
2023-05-16T05:19:39.814Z,2.70
2023-05-16T05:22:07.460Z,2.70
2023-05-16T05:24:35.273Z,2.47
2023-05-16T05:27:02.879Z,2.50
2023-05-16T05:29:30.650Z,2.77
2023-05-16T05:31:58.404Z,3.07
2023-05-16T05:34:26.317Z,2.90
2023-05-16T05:36:54.115Z,3.10
2023-05-16T05:39:22.087Z,3.50
2023-05-16T05:41:49.716Z,3.37
2023-05-16T05:44:17.671Z,3.20
2023-05-16T05:46:45.583Z,3.30
2023-05-16T05:49:13.557Z,3.37
2023-05-16T05:51:41.073Z,2.80
2023-05-16T05:54:08.981Z,3.23
2023-05-16T05:56:36.562Z,2.43
2023-05-16T05:59:04.417Z,3.00
2023-05-16T06:01:31.948Z,3.00
2023-05-16T06:04:02.076Z,3.37
2023-05-16T06:06:30.012Z,2.57
2023-05-16T06:08:57.944Z,3.30
2023-05-16T06:11:25.558Z,2.93
2023-05-16T06:13:53.544Z,3.90
2023-05-16T06:16:25.454Z,3.23
2023-05-16T06:18:53.585Z,3.33
2023-05-16T06:21:21.439Z,2.83
2023-05-16T06:23:49.660Z,3.28
2023-05-16T06:26:17.462Z,3.55
2023-05-16T06:28:45.744Z,3.05
2023-05-16T06:31:13.443Z,3.55
2023-05-16T06:33:41.411Z,2.90
2023-05-16T06:36:09.215Z,3.30
2023-05-16T06:38:37.076Z,2.83
2023-05-16T06:41:04.915Z,2.83
2023-05-16T06:43:32.854Z,2.88
2023-05-16T06:46:00.514Z,3.28
2023-05-16T06:48:28.761Z,3.17
2023-05-16T06:50:57.449Z,4.85
2023-05-16T06:53:26.188Z,3.33
2023-05-16T06:55:53.906Z,3.28
2023-05-16T06:58:21.871Z,3.20
2023-05-16T07:00:50.786Z,3.65
2023-05-16T07:03:18.868Z,3.17
2023-05-16T07:05:46.683Z,3.10
2023-05-16T07:08:15.098Z,3.17
2023-05-16T07:10:42.863Z,3.30
2023-05-16T07:13:10.871Z,3.83
2023-05-16T07:15:38.575Z,3.40
2023-05-16T07:18:06.716Z,3.40
2023-05-16T07:20:34.361Z,2.77
2023-05-16T07:23:02.309Z,3.80
2023-05-16T07:25:30.147Z,3.88
2023-05-16T07:27:58.298Z,3.22
2023-05-16T07:30:26.034Z,2.90
2023-05-16T07:32:54.338Z,3.22
2023-05-16T07:35:22.053Z,3.08
2023-05-16T07:37:49.923Z,2.97
2023-05-16T07:40:18.716Z,4.13
2023-05-16T07:42:46.658Z,4.43
2023-05-16T07:45:14.544Z,4.65
2023-05-16T07:47:42.652Z,3.83
2023-05-16T07:50:11.556Z,4.22
2023-05-16T07:52:39.414Z,3.75
2023-05-16T07:55:07.341Z,3.72
2023-05-16T07:57:35.413Z,4.20
2023-05-16T08:00:04.424Z,4.38
2023-05-16T08:02:40.204Z,4.57
2023-05-16T08:05:08.395Z,3.60
2023-05-16T08:07:36.116Z,3.72
2023-05-16T08:10:03.841Z,4.03
2023-05-16T08:12:31.877Z,2.95
2023-05-16T08:14:59.631Z,2.67
2023-05-16T08:17:27.717Z,3.30
2023-05-16T08:19:56.389Z,2.88
2023-05-16T08:22:24.297Z,3.08
2023-05-16T08:24:52.052Z,2.92
2023-05-16T08:27:20.117Z,3.90
2023-05-16T08:29:47.983Z,3.10
2023-05-16T08:32:16.554Z,2.75
2023-05-16T08:34:44.216Z,2.85
2023-05-16T08:37:12.147Z,4.03
2023-05-16T08:39:40.318Z,2.92
2023-05-16T08:42:08.857Z,2.85
2023-05-16T08:44:36.552Z,2.60
2023-05-16T08:47:15.971Z,2.17
2023-05-16T08:49:44.502Z,2.60
2023-05-16T08:52:12.840Z,1.83
2023-05-16T08:54:41.049Z,2.47
2023-05-16T08:57:10.355Z,2.40
2023-05-16T08:59:38.688Z,2.72
2023-05-16T09:02:06.844Z,2.10
2023-05-16T09:04:34.789Z,2.42
2023-05-16T09:07:02.817Z,3.05
2023-05-16T09:09:30.638Z,2.40
2023-05-16T09:11:58.668Z,10.32
2023-05-16T09:14:26.356Z,3.42
2023-05-16T09:17:05.297Z,2.90
2023-05-16T09:19:45.330Z,3.40
2023-05-16T09:22:14.086Z,2.42
2023-05-16T09:24:43.020Z,2.80
2023-05-16T09:27:12.967Z,2.85
2023-05-16T09:29:51.146Z,2.60
2023-05-16T09:32:19.308Z,2.80
2023-05-16T09:34:49.424Z,2.28
2023-05-16T09:37:17.484Z,3.45
2023-05-16T09:39:51.633Z,12.82
2023-05-16T09:42:20.421Z,2.63
2023-05-16T09:44:52.960Z,2.88
2023-05-16T09:47:22.385Z,2.33
2023-05-16T09:49:53.983Z,2.05
2023-05-16T09:52:22.044Z,2.10
2023-05-16T09:54:50.357Z,2.30
2023-05-16T09:57:22.042Z,2.63
2023-05-16T09:59:50.404Z,2.90
2023-05-16T10:02:19.224Z,1.48
2023-05-16T10:04:47.346Z,1.80
2023-05-16T10:07:16.358Z,2.47
2023-05-16T10:09:44.173Z,2.15
2023-05-16T10:12:15.548Z,4.45
2023-05-16T10:14:46.748Z,2.83
2023-05-16T10:17:16.162Z,1.92
2023-05-16T10:19:44.007Z,2.05
2023-05-16T10:22:13.641Z,2.70
2023-05-16T10:25:07.867Z,2.50
2023-05-16T10:27:36.592Z,2.72
2023-05-16T10:30:05.780Z,3.35
2023-05-16T10:32:34.155Z,17.52
2023-05-16T10:35:03.254Z,3.55
2023-05-16T10:37:34.656Z,5.88
2023-05-16T10:40:05.473Z,2.67
2023-05-16T10:42:33.872Z,2.20
2023-05-16T10:45:31.416Z,1.90
2023-05-16T10:48:02.208Z,2.10
2023-05-16T10:50:46.393Z,2.05
2023-05-16T10:53:29.046Z,2.70
2023-05-16T10:55:58.938Z,1.92
2023-05-16T10:58:38.681Z,1.75
2023-05-16T11:01:16.244Z,2.30
2023-05-16T11:04:02.105Z,3.45
2023-05-16T11:06:34.516Z,2.00
2023-05-16T11:09:25.005Z,3.80
2023-05-16T11:11:52.250Z,5.00
2023-05-16T11:14:34.906Z,4.18
2023-05-16T11:17:16.839Z,3.72
2023-05-16T11:19:45.179Z,3.55
2023-05-16T11:22:34.373Z,5.18
2023-05-16T11:25:07.920Z,2.50
2023-05-16T11:27:36.732Z,6.38
2023-05-16T11:30:07.250Z,4.10
2023-05-16T11:32:36.345Z,3.60
2023-05-16T11:35:14.661Z,2.13
2023-05-16T11:37:44.460Z,2.70
2023-05-16T11:40:14.031Z,4.05
2023-05-16T11:42:46.569Z,4.18
2023-05-16T11:45:18.011Z,3.63
2023-05-16T11:47:50.408Z,2.83
2023-05-16T11:50:26.846Z,2.17
2023-05-16T11:52:57.657Z,3.28
2023-05-16T11:55:41.212Z,3.88
2023-05-16T11:58:11.795Z,4.25
2023-05-16T12:00:51.839Z,2.30
2023-05-16T12:03:24.387Z,2.35
2023-05-16T12:05:53.663Z,2.97
2023-05-16T12:08:23.672Z,2.67
2023-05-16T12:10:54.229Z,2.65
2023-05-16T12:13:27.608Z,2.78
2023-05-16T12:15:56.920Z,4.43
2023-05-16T12:18:25.441Z,2.90
2023-05-16T12:20:53.885Z,2.92
2023-05-16T12:23:21.257Z,2.55
2023-05-16T12:25:49.686Z,2.70
2023-05-16T12:28:17.422Z,2.58
2023-05-16T12:30:48.070Z,2.70
2023-05-16T12:33:17.258Z,3.00
2023-05-16T12:35:47.928Z,3.10
2023-05-16T12:38:17.861Z,3.35
2023-05-16T12:40:46.607Z,3.28
2023-05-16T12:43:18.088Z,4.15
2023-05-16T12:45:57.408Z,3.95
2023-05-16T12:48:33.137Z,3.58
2023-05-16T12:51:17.293Z,3.13
2023-05-16T12:54:05.722Z,3.53
2023-05-16T12:56:41.037Z,4.45
2023-05-16T12:59:09.180Z,4.82
2023-05-16T13:01:37.843Z,5.47
2023-05-16T13:04:06.243Z,6.70
2023-05-16T13:06:55.564Z,6.80
2023-05-16T13:09:24.009Z,7.40
2023-05-16T13:11:52.658Z,6.60
2023-05-16T13:14:20.960Z,6.25
2023-05-16T13:16:49.764Z,4.85
2023-05-16T13:19:24.557Z,5.38
2023-05-16T13:21:52.897Z,5.15
2023-05-16T13:24:20.672Z,8.40
2023-05-16T13:26:48.351Z,5.13
2023-05-16T13:29:16.379Z,4.70
2023-05-16T13:31:47.696Z,5.05
2023-05-16T13:34:15.879Z,5.07
2023-05-16T13:39:17.363Z,4.45
2023-05-16T13:41:47.382Z,4.43
2023-05-16T13:44:16.614Z,3.30
2023-05-16T13:46:45.076Z,3.90
2023-05-16T13:49:12.815Z,4.82
2023-05-16T13:51:43.455Z,4.20
2023-05-16T13:54:11.677Z,3.97
2023-05-16T13:56:40.596Z,3.83
2023-05-16T13:59:10.201Z,4.78
2023-05-16T14:01:39.815Z,4.30
2023-05-16T14:04:07.710Z,3.75
2023-05-16T14:06:36.144Z,4.07
2023-05-16T14:09:04.177Z,4.43
2023-05-16T14:11:32.803Z,4.72
2023-05-16T14:14:00.978Z,4.75
2023-05-16T14:16:31.296Z,5.68
2023-05-16T14:18:59.030Z,5.68
2023-05-16T14:21:27.980Z,5.65
2023-05-16T14:23:56.359Z,5.63
2023-05-16T14:26:25.710Z,6.57
2023-05-16T14:28:53.871Z,6.50
2023-05-16T14:31:22.157Z,6.47
2023-05-16T14:33:51.294Z,7.05
2023-05-16T14:36:20.891Z,6.68
2023-05-16T14:38:49.298Z,6.70
2023-05-16T14:41:17.757Z,6.53
2023-05-16T14:43:46.484Z,7.00
2023-05-16T14:46:14.776Z,6.93
2023-05-16T14:48:42.877Z,6.00
2023-05-16T14:51:11.078Z,5.20
2023-05-16T14:53:39.629Z,7.13
2023-05-16T14:56:08.556Z,6.35
2023-05-16T14:58:36.453Z,7.68
2023-05-16T15:01:06.564Z,5.85
2023-05-16T15:03:46.940Z,6.13
2023-05-16T15:06:19.561Z,7.80
2023-05-16T15:08:47.136Z,6.47
2023-05-16T15:11:15.841Z,10.50
2023-05-16T15:13:43.806Z,8.38
2023-05-16T15:16:12.280Z,12.70
2023-05-16T15:18:40.721Z,10.60
2023-05-16T15:21:09.345Z,10.57
2023-05-16T15:23:37.510Z,9.07
2023-05-16T15:26:06.811Z,10.35
2023-05-16T15:28:34.413Z,8.00
2023-05-16T15:31:05.757Z,8.60
2023-05-16T15:33:33.616Z,8.68
2023-05-16T15:36:01.750Z,8.82
2023-05-16T15:38:29.567Z,8.70
2023-05-16T15:41:27.118Z,11.30
2023-05-16T15:43:57.921Z,10.45
2023-05-16T15:46:26.016Z,13.82
2023-05-16T15:48:53.697Z,10.18
2023-05-16T15:51:21.645Z,13.13
2023-05-16T15:53:49.374Z,12.32
2023-05-16T15:56:17.621Z,12.80
2023-05-16T15:58:46.980Z,13.23
2023-05-16T16:01:14.818Z,14.18
2023-05-16T16:03:42.592Z,12.77
2023-05-16T16:06:10.809Z,11.80
2023-05-16T16:08:38.131Z,11.30
2023-05-16T16:11:06.244Z,20.38
2023-05-16T16:13:34.185Z,10.20
2023-05-16T16:16:02.040Z,12.15
2023-05-16T16:18:30.111Z,10.85
2023-05-16T16:20:58.134Z,11.45
2023-05-16T16:23:26.073Z,13.30
2023-05-16T16:25:54.630Z,15.73
2023-05-16T16:28:22.761Z,15.23
2023-05-16T16:30:50.702Z,19.38
2023-05-16T16:33:18.590Z,18.23
2023-05-16T16:35:46.341Z,15.50
2023-05-16T16:38:13.767Z,19.17
2023-05-16T16:40:41.903Z,17.13
2023-05-16T16:43:12.550Z,17.77
2023-05-16T16:45:40.934Z,13.55
2023-05-16T16:48:11.943Z,15.23
2023-05-16T16:50:40.275Z,15.18
2023-05-16T16:53:08.154Z,15.82
2023-05-16T16:55:38.808Z,19.33
2023-05-16T16:58:08.145Z,14.00
2023-05-16T17:00:36.723Z,17.25
2023-05-16T17:03:05.062Z,17.88
2023-05-16T17:05:33.582Z,19.98
2023-05-16T17:08:01.672Z,21.35
2023-05-16T17:10:30.476Z,16.95
2023-05-16T17:13:03.096Z,17.38
2023-05-16T17:15:31.157Z,20.60
2023-05-16T17:18:00.012Z,21.30
2023-05-16T17:20:27.706Z,18.63
2023-05-16T17:22:56.782Z,20.40
2023-05-16T17:25:26.348Z,20.58
2023-05-16T17:27:54.305Z,17.65
2023-05-16T17:30:22.278Z,18.35
2023-05-16T17:32:50.395Z,18.10
2023-05-16T17:35:20.404Z,15.95
2023-05-16T17:37:48.417Z,18.42
2023-05-16T17:40:44.554Z,18.83
2023-05-16T17:43:11.972Z,19.23
2023-05-16T17:45:40.637Z,19.02
2023-05-16T17:48:10.009Z,21.48
2023-05-16T17:50:39.334Z,15.88
2023-05-16T17:53:08.192Z,15.57
2023-05-16T17:55:38.277Z,16.65
2023-05-16T17:58:07.132Z,16.38
2023-05-16T18:00:35.629Z,14.88
2023-05-16T18:03:04.157Z,17.25
2023-05-16T18:05:32.425Z,19.05
2023-05-16T18:08:00.508Z,19.17
2023-05-16T18:10:36.698Z,17.88
2023-05-16T18:13:13.181Z,15.65
2023-05-16T18:15:42.075Z,17.52
2023-05-16T18:18:09.989Z,15.30
2023-05-16T18:20:38.575Z,15.43
2023-05-16T18:23:08.767Z,17.70
2023-05-16T18:25:36.773Z,16.40
2023-05-16T18:28:04.776Z,17.65
2023-05-16T18:30:32.988Z,18.00
2023-05-16T18:33:01.254Z,17.15
2023-05-16T18:35:29.960Z,20.25
2023-05-16T18:37:58.448Z,84.90
2023-05-16T18:40:26.976Z,44.63
2023-05-16T18:42:56.519Z,44.30
2023-05-16T18:45:25.401Z,16.73
2023-05-16T18:47:53.929Z,19.50
2023-05-16T18:50:22.463Z,17.35
2023-05-16T18:52:50.418Z,19.05
2023-05-16T18:55:18.818Z,17.23
2023-05-16T18:57:46.643Z,16.77
2023-05-16T19:00:15.205Z,17.48
2023-05-16T19:02:44.398Z,19.17
2023-05-16T19:05:14.612Z,18.10
2023-05-16T19:07:43.346Z,17.20
2023-05-16T19:10:13.417Z,25.77
2023-05-16T19:12:42.259Z,17.13
2023-05-16T19:15:11.437Z,29.23
2023-05-16T19:17:41.801Z,18.07
2023-05-16T19:20:11.301Z,16.48
2023-05-16T19:22:39.730Z,14.20
2023-05-16T19:25:09.381Z,13.13
2023-05-16T19:27:37.328Z,13.80
2023-05-16T19:30:05.776Z,11.73
2023-05-16T19:32:35.755Z,12.35
2023-05-16T19:35:05.631Z,9.73
2023-05-16T19:37:33.887Z,14.63
2023-05-16T19:40:03.516Z,13.20
2023-05-16T19:42:32.271Z,14.70
2023-05-16T19:45:00.969Z,11.90
2023-05-16T19:47:30.123Z,12.97
2023-05-16T19:49:58.493Z,15.20
2023-05-16T19:52:27.101Z,13.05
2023-05-16T19:54:56.724Z,13.53
2023-05-16T19:57:25.352Z,11.35
2023-05-16T19:59:53.569Z,13.63
2023-05-16T20:02:24.308Z,19.07
2023-05-16T20:04:53.205Z,9.93
2023-05-16T20:07:21.250Z,10.40
2023-05-16T20:09:49.512Z,10.40
2023-05-16T20:12:17.887Z,9.70
2023-05-16T20:14:46.609Z,10.43
2023-05-16T20:17:14.870Z,13.57
2023-05-16T20:19:44.235Z,13.02
2023-05-16T20:22:12.357Z,12.85
2023-05-16T20:24:40.641Z,11.43
2023-05-16T20:27:08.555Z,12.43
2023-05-16T20:29:36.633Z,9.93
2023-05-16T20:32:04.610Z,12.97
2023-05-16T20:34:34.940Z,10.50
2023-05-16T20:37:02.793Z,13.40
2023-05-16T20:39:31.815Z,11.53
2023-05-16T20:41:59.797Z,12.47
2023-05-16T20:44:29.428Z,10.83
2023-05-16T20:46:58.279Z,11.77
2023-05-16T20:49:26.402Z,12.27
2023-05-16T20:51:54.172Z,13.30
2023-05-16T20:54:22.674Z,13.30
2023-05-16T20:56:50.893Z,15.50
2023-05-16T20:59:18.997Z,12.63
2023-05-16T21:01:46.766Z,11.33
2023-05-16T21:04:15.962Z,11.53
2023-05-16T21:06:45.549Z,11.53
2023-05-16T21:09:17.262Z,12.13
2023-05-16T21:11:48.467Z,12.60
2023-05-16T21:14:31.068Z,13.10
2023-05-16T21:16:59.954Z,13.63
2023-05-16T21:19:27.939Z,12.63
2023-05-16T21:21:56.274Z,10.77
2023-05-16T21:24:23.987Z,10.57
2023-05-16T21:26:51.824Z,12.57
2023-05-16T21:29:19.459Z,11.27
2023-05-16T21:31:47.379Z,12.07
2023-05-16T21:34:15.360Z,13.30
2023-05-16T21:36:43.380Z,10.10
2023-05-16T21:39:11.184Z,10.50
2023-05-16T21:41:39.130Z,10.27
2023-05-16T21:44:07.026Z,10.43
2023-05-16T21:46:34.881Z,9.70
2023-05-16T21:49:02.643Z,8.60
2023-05-16T21:51:30.910Z,8.60
2023-05-16T21:53:58.655Z,7.93
2023-05-16T21:56:27.758Z,8.47
2023-05-16T21:58:55.537Z,8.63
2023-05-16T22:01:31.062Z,7.50
2023-05-16T22:03:59.342Z,9.20
2023-05-16T22:06:27.565Z,6.93
2023-05-16T22:08:55.289Z,8.03
2023-05-16T22:11:23.493Z,6.70
2023-05-16T22:13:51.399Z,6.90
2023-05-16T22:16:19.396Z,7.57
2023-05-16T22:18:47.451Z,5.90
2023-05-16T22:21:18.430Z,8.00
2023-05-16T22:23:46.141Z,8.60
2023-05-16T22:26:14.218Z,8.63
2023-05-16T22:28:41.824Z,9.47
2023-05-16T22:31:09.727Z,8.13
2023-05-16T22:33:37.572Z,8.40
2023-05-16T22:36:05.762Z,7.10
2023-05-16T22:38:34.646Z,8.67
2023-05-16T22:41:02.536Z,8.83
2023-05-16T22:43:30.138Z,8.70
2023-05-16T22:45:58.295Z,8.83
2023-05-16T22:48:26.279Z,7.97
2023-05-16T22:50:54.181Z,8.00
2023-05-16T22:53:21.779Z,7.97
2023-05-16T22:55:49.757Z,8.73
2023-05-16T22:58:17.985Z,9.20
2023-05-16T23:00:46.031Z,8.40
2023-05-16T23:03:13.774Z,9.20
2023-05-16T23:05:41.887Z,9.93
2023-05-16T23:08:09.635Z,9.83
2023-05-16T23:10:37.674Z,9.90
2023-05-16T23:13:05.280Z,9.53
2023-05-16T23:15:33.363Z,9.27
2023-05-16T23:18:01.013Z,10.80
2023-05-16T23:20:29.066Z,10.10
2023-05-16T23:22:56.685Z,9.90
2023-05-16T23:25:24.677Z,9.90
2023-05-16T23:27:52.387Z,10.97
2023-05-16T23:30:20.450Z,11.13
2023-05-16T23:32:48.304Z,12.03
2023-05-16T23:35:16.235Z,11.43
2023-05-16T23:37:43.921Z,12.10
2023-05-16T23:40:12.073Z,11.70
2023-05-16T23:42:42.491Z,11.50
2023-05-16T23:45:10.568Z,11.40
2023-05-16T23:47:38.484Z,11.47
2023-05-16T23:50:07.370Z,12.77
2023-05-16T23:52:35.063Z,11.70
2023-05-16T23:55:03.056Z,12.50
2023-05-16T23:57:30.776Z,13.03
2023-05-16T23:59:58.727Z,12.37
